Time;durP1;ratioP1;P1;durP2;ratioP2;P2;SDS_P1;SDS_P2;PMS_P1;PMS_P2;Temp;Humidity;BMP_temperature;BMP_pressure;BME280_temperature;BME280_humidity;BME280_pressure;Samples;Min_cycle;Max_cycle;Signal;HPM_P1;HPM_P2
2023/10/19 00:02:15;;;;;;;71.82;36.25;;;;;;;;;;5006057;28;25060;-63
2023/10/19 00:04:41;;;;;;;80.25;40.45;;;;;;;;;;5013306;28;25046;-62
2023/10/19 00:07:08;;;;;;;66.07;32.25;;;;;;;;;;5016578;28;25085;-62
2023/10/19 00:09:38;;;;;;;52.97;29.70;;;;;;;;;;5014348;28;25051;-61
2023/10/19 00:12:09;;;;;;;69.35;36.80;;;;;;;;;;5011548;28;25128;-64
2023/10/19 00:14:35;;;;;;;70.57;32.47;;;;;;;;;;5010999;28;25079;-62
2023/10/19 00:17:05;;;;;;;72.57;35.47;;;;;;;;;;4991400;28;25069;-62
2023/10/19 00:19:38;;;;;;;54.13;29.23;;;;;;;;;;5014552;28;25057;-63
2023/10/19 00:22:08;;;;;;;71.75;36.83;;;;;;;;;;5006619;28;25065;-62
2023/10/19 00:24:34;;;;;;;50.88;26.67;;;;;;;;;;5014513;28;25067;-62
2023/10/19 00:27:05;;;;;;;77.90;37.95;;;;;;;;;;5008867;28;25059;-63
2023/10/19 00:29:33;;;;;;;62.03;31.30;;;;;;;;;;5011008;28;25078;-62
2023/10/19 00:31:59;;;;;;;53.45;29.98;;;;;;;;;;5010260;28;25065;-62
2023/10/19 00:34:26;;;;;;;58.58;30.50;;;;;;;;;;5009655;28;25093;-61
2023/10/19 00:36:52;;;;;;;64.00;28.98;;;;;;;;;;5013368;28;25059;-62
2023/10/19 00:39:21;;;;;;;62.60;30.58;;;;;;;;;;5008701;28;25148;-63
2023/10/19 00:41:47;;;;;;;42.58;24.65;;;;;;;;;;5003983;28;25099;-64
2023/10/19 00:45:02;;;;;;;43.35;22.50;;;;;;;;;;5011201;28;25202;-64
2023/10/19 00:47:03;;;;;;;42.15;22.73;;;;;;;;;;4996492;28;25051;-63
2023/10/19 00:49:29;;;;;;;70.55;32.13;;;;;;;;;;5006800;28;25046;-62
2023/10/19 00:52:10;;;;;;;39.40;22.52;;;;;;;;;;5006778;28;25061;-62
2023/10/19 00:57:13;;;;;;;52.40;27.77;;;;;;;;;;5007343;28;25076;-62
2023/10/19 00:59:52;;;;;;;45.53;24.85;;;;;;;;;;4994080;28;25113;-62
2023/10/19 01:04:46;;;;;;;34.50;22.10;;;;;;;;;;5013496;28;25083;-63
2023/10/19 01:07:21;;;;;;;22.52;16.42;;;;;;;;;;5019501;28;25065;-63
2023/10/19 01:09:47;;;;;;;26.20;18.02;;;;;;;;;;5023729;28;25055;-61
2023/10/19 01:12:25;;;;;;;21.00;14.23;;;;;;;;;;5015231;28;25088;-63
2023/10/19 01:15:06;;;;;;;26.35;18.40;;;;;;;;;;5013343;28;25160;-63
2023/10/19 01:17:34;;;;;;;35.03;18.52;;;;;;;;;;5007232;28;25050;-62
2023/10/19 01:20:00;;;;;;;29.25;16.60;;;;;;;;;;5016640;28;25162;-63
2023/10/19 01:22:26;;;;;;;26.35;15.13;;;;;;;;;;5015980;28;25056;-61
2023/10/19 01:24:55;;;;;;;29.50;18.52;;;;;;;;;;5015100;28;25078;-62
2023/10/19 01:27:21;;;;;;;32.70;16.42;;;;;;;;;;5019296;28;25049;-62
2023/10/19 01:29:47;;;;;;;23.95;15.80;;;;;;;;;;5013782;28;25071;-61
2023/10/19 01:32:15;;;;;;;27.73;17.67;;;;;;;;;;5014950;28;25067;-61
2023/10/19 01:34:41;;;;;;;20.67;13.55;;;;;;;;;;5015649;28;25104;-61
2023/10/19 01:37:07;;;;;;;26.55;12.85;;;;;;;;;;5011520;28;25056;-62
2023/10/19 01:39:36;;;;;;;25.05;16.25;;;;;;;;;;5016557;28;25054;-61
2023/10/19 01:42:07;;;;;;;28.65;15.25;;;;;;;;;;5008951;28;25083;-62
2023/10/19 01:44:35;;;;;;;19.13;13.98;;;;;;;;;;5018443;28;25089;-62
2023/10/19 01:47:01;;;;;;;18.40;14.38;;;;;;;;;;5017548;28;25143;-63
2023/10/19 01:49:28;;;;;;;21.85;12.60;;;;;;;;;;4995412;28;25065;-61
2023/10/19 01:51:55;;;;;;;20.42;13.02;;;;;;;;;;5009863;28;25083;-61
2023/10/19 01:54:27;;;;;;;16.27;10.88;;;;;;;;;;5018782;28;25075;-62
2023/10/19 01:56:54;;;;;;;11.90;9.45;;;;;;;;;;5021277;28;25083;-62
2023/10/19 01:59:22;;;;;;;19.80;14.02;;;;;;;;;;5020662;28;25164;-62
2023/10/19 02:01:49;;;;;;;23.52;12.50;;;;;;;;;;5011971;28;25125;-61
2023/10/19 02:04:15;;;;;;;18.35;12.02;;;;;;;;;;5018221;28;25049;-61
2023/10/19 02:06:41;;;;;;;17.40;11.38;;;;;;;;;;5010363;28;25064;-62
2023/10/19 02:09:09;;;;;;;21.95;11.73;;;;;;;;;;5016351;28;25089;-62
2023/10/19 02:11:41;;;;;;;22.88;12.63;;;;;;;;;;5021760;28;25114;-62
2023/10/19 02:14:13;;;;;;;27.33;11.15;;;;;;;;;;5008817;28;25146;-62
2023/10/19 02:16:39;;;;;;;;;;;;;;;;;;5014446;28;25048;-62
2023/10/19 02:19:05;;;;;;;19.92;8.75;;;;;;;;;;5014124;28;25056;-62
2023/10/19 02:21:32;;;;;;;20.55;10.27;;;;;;;;;;5008529;28;25056;-62
2023/10/19 02:23:58;;;;;;;16.02;9.90;;;;;;;;;;5012893;28;25066;-62
2023/10/19 02:26:28;;;;;;;19.05;8.98;;;;;;;;;;5004150;28;25047;-61
2023/10/19 02:28:55;;;;;;;16.75;10.88;;;;;;;;;;5009680;28;25127;-63
2023/10/19 02:31:23;;;;;;;12.65;8.70;;;;;;;;;;5008404;28;25087;-61
2023/10/19 02:33:58;;;;;;;10.43;6.53;;;;;;;;;;5013706;28;25052;-62
2023/10/19 02:36:28;;;;;;;20.90;10.15;;;;;;;;;;5013582;28;25061;-62
2023/10/19 02:38:54;;;;;;;8.23;6.20;;;;;;;;;;5019241;28;25096;-61
2023/10/19 02:41:20;;;;;;;11.10;6.70;;;;;;;;;;5014730;28;25085;-62
2023/10/19 02:43:51;;;;;;;9.00;5.82;;;;;;;;;;5018955;28;25044;-63
2023/10/19 02:46:20;;;;;;;7.65;3.03;;;;;;;;;;5015705;28;25091;-61
2023/10/19 02:48:47;;;;;;;7.53;3.42;;;;;;;;;;5010581;28;25135;-62
2023/10/19 02:51:13;;;;;;;8.82;2.60;;;;;;;;;;5020055;28;25116;-61
2023/10/19 02:53:42;;;;;;;4.78;2.40;;;;;;;;;;5018590;28;25057;-62
2023/10/19 02:56:19;;;;;;;9.32;2.13;;;;;;;;;;5009985;28;25068;-62
2023/10/19 02:58:48;;;;;;;3.20;1.40;;;;;;;;;;5017006;28;25135;-63
2023/10/19 03:01:22;;;;;;;12.57;1.98;;;;;;;;;;5011866;28;25068;-63
2023/10/19 03:03:53;;;;;;;11.98;1.63;;;;;;;;;;5013912;28;25091;-62
2023/10/19 03:06:20;;;;;;;8.90;1.60;;;;;;;;;;5013569;28;25085;-63
2023/10/19 03:08:47;;;;;;;4.90;1.50;;;;;;;;;;5011280;28;25076;-63
2023/10/19 03:11:13;;;;;;;5.35;1.55;;;;;;;;;;5018791;28;25160;-61
2023/10/19 03:13:40;;;;;;;6.25;1.48;;;;;;;;;;5016870;28;25140;-61
2023/10/19 03:16:09;;;;;;;7.28;1.50;;;;;;;;;;5010580;28;25058;-61
2023/10/19 03:18:35;;;;;;;6.05;1.55;;;;;;;;;;5017377;28;25114;-60
2023/10/19 03:21:04;;;;;;;2.88;1.23;;;;;;;;;;5023349;28;25053;-60
2023/10/19 03:23:34;;;;;;;5.60;1.15;;;;;;;;;;5014471;28;25078;-61
2023/10/19 03:26:23;;;;;;;3.10;0.95;;;;;;;;;;5020447;28;25078;-61
2023/10/19 03:28:54;;;;;;;8.20;1.95;;;;;;;;;;5005650;28;25092;-61
2023/10/19 03:31:21;;;;;;;9.10;1.58;;;;;;;;;;5013899;28;25054;-61
2023/10/19 03:33:49;;;;;;;6.13;1.30;;;;;;;;;;5014446;28;25063;-61
2023/10/19 03:36:16;;;;;;;7.13;1.58;;;;;;;;;;5017006;28;25059;-61
2023/10/19 03:38:43;;;;;;;8.45;1.33;;;;;;;;;;5024503;28;25115;-61
2023/10/19 03:41:10;;;;;;;3.33;1.45;;;;;;;;;;5017511;28;25061;-61
2023/10/19 03:43:43;;;;;;;4.65;0.95;;;;;;;;;;5010657;28;25083;-63
2023/10/19 03:46:18;;;;;;;2.30;1.10;;;;;;;;;;5013041;28;25087;-61
2023/10/19 03:48:46;;;;;;;7.78;1.63;;;;;;;;;;5018514;28;25069;-61
2023/10/19 03:51:13;;;;;;;8.10;1.10;;;;;;;;;;5017149;28;25103;-60
2023/10/19 03:53:46;;;;;;;4.55;1.50;;;;;;;;;;5003849;28;25066;-60
2023/10/19 03:56:12;;;;;;;;;;;;;;;;;;4998139;28;25139;-61
2023/10/19 03:58:40;;;;;;;5.32;1.70;;;;;;;;;;5024189;28;24079;-62
2023/10/19 04:01:07;;;;;;;5.03;1.75;;;;;;;;;;5014581;28;25102;-62
2023/10/19 04:03:34;;;;;;;7.18;1.50;;;;;;;;;;5018559;28;25100;-61
2023/10/19 04:06:01;;;;;;;4.07;1.80;;;;;;;;;;5016405;28;25118;-61
2023/10/19 04:08:31;;;;;;;4.25;1.40;;;;;;;;;;5019224;28;25068;-61
2023/10/19 04:11:08;;;;;;;5.95;1.77;;;;;;;;;;5013496;28;25044;-60
2023/10/19 04:13:35;;;;;;;7.25;1.58;;;;;;;;;;5016427;28;25070;-61
2023/10/19 04:16:01;;;;;;;6.53;1.63;;;;;;;;;;5011187;28;25137;-60
2023/10/19 04:18:27;;;;;;;7.38;1.92;;;;;;;;;;5013602;28;25149;-61
2023/10/19 04:23:20;;;;;;;10.40;1.67;;;;;;;;;;5014746;28;25085;-61
2023/10/19 04:25:47;;;;;;;11.23;1.50;;;;;;;;;;5008099;28;25059;-60
2023/10/19 04:28:20;;;;;;;2.10;1.40;;;;;;;;;;5015027;28;25058;-61
2023/10/19 04:30:48;;;;;;;5.60;1.30;;;;;;;;;;5005169;28;25135;-62
2023/10/19 04:33:16;;;;;;;3.38;1.20;;;;;;;;;;5015093;28;25173;-62
2023/10/19 04:35:42;;;;;;;5.07;1.40;;;;;;;;;;5003212;28;25166;-62
2023/10/19 04:38:08;;;;;;;4.57;1.70;;;;;;;;;;5018170;28;25077;-61
2023/10/19 04:40:35;;;;;;;4.47;1.80;;;;;;;;;;5013546;28;25058;-62
2023/10/19 04:43:06;;;;;;;7.93;1.88;;;;;;;;;;5017930;28;25122;-62
2023/10/19 04:45:32;;;;;;;5.75;1.63;;;;;;;;;;5012144;28;25166;-62
2023/10/19 04:47:58;;;;;;;6.13;2.08;;;;;;;;;;5016179;28;25096;-62
2023/10/19 04:50:24;;;;;;;7.68;1.50;;;;;;;;;;5014084;28;25085;-62
2023/10/19 04:52:50;;;;;;;6.57;1.83;;;;;;;;;;5014060;28;25073;-62
2023/10/19 04:55:16;;;;;;;6.72;1.40;;;;;;;;;;5014102;28;25140;-62
2023/10/19 04:57:42;;;;;;;6.63;1.85;;;;;;;;;;5019581;28;25080;-62
2023/10/19 05:00:13;;;;;;;5.18;2.00;;;;;;;;;;5015191;28;25075;-61
2023/10/19 05:02:39;;;;;;;4.05;1.10;;;;;;;;;;5015171;28;25067;-60
2023/10/19 05:05:05;;;;;;;5.55;1.50;;;;;;;;;;5022524;28;25068;-61
2023/10/19 05:07:30;;;;;;;7.90;1.60;;;;;;;;;;5020208;28;25110;-62
2023/10/19 05:09:59;;;;;;;3.85;1.05;;;;;;;;;;5022527;28;25054;-61
2023/10/19 05:12:25;;;;;;;5.93;1.20;;;;;;;;;;4995395;28;25084;-60
2023/10/19 05:14:51;;;;;;;5.22;1.45;;;;;;;;;;5021954;28;25066;-60
2023/10/19 05:17:20;;;;;;;7.97;1.50;;;;;;;;;;5008938;28;25100;-61
2023/10/19 05:19:46;;;;;;;9.45;1.63;;;;;;;;;;5016339;28;25070;-61
2023/10/19 05:22:12;;;;;;;7.38;1.25;;;;;;;;;;5008398;28;25068;-61
2023/10/19 05:24:38;;;;;;;5.18;2.03;;;;;;;;;;5011471;28;25050;-61
2023/10/19 05:27:05;;;;;;;5.63;1.17;;;;;;;;;;5011261;28;25082;-61
2023/10/19 05:29:33;;;;;;;8.40;1.40;;;;;;;;;;5009899;28;25109;-61
2023/10/19 05:32:00;;;;;;;3.95;1.48;;;;;;;;;;5014113;28;25123;-61
2023/10/19 05:34:29;;;;;;;4.43;1.70;;;;;;;;;;5009462;28;25096;-62
2023/10/19 05:36:58;;;;;;;10.55;1.67;;;;;;;;;;5011711;28;25062;-63
2023/10/19 05:39:27;;;;;;;6.35;1.27;;;;;;;;;;5005855;28;25154;-60
2023/10/19 05:41:54;;;;;;;8.10;1.40;;;;;;;;;;5013202;28;25076;-62
2023/10/19 05:44:19;;;;;;;4.78;1.50;;;;;;;;;;5007824;28;25109;-61
2023/10/19 05:46:46;;;;;;;5.05;1.88;;;;;;;;;;5009601;28;25077;-61
2023/10/19 05:49:12;;;;;;;4.90;1.40;;;;;;;;;;5012583;28;25067;-62
2023/10/19 05:51:39;;;;;;;4.43;1.52;;;;;;;;;;5003249;28;25081;-61
2023/10/19 05:54:05;;;;;;;4.95;1.65;;;;;;;;;;5013921;28;25102;-61
2023/10/19 05:56:34;;;;;;;12.35;2.17;;;;;;;;;;5010848;28;25069;-62
2023/10/19 05:59:01;;;;;;;8.63;1.45;;;;;;;;;;5014203;28;25146;-61
2023/10/19 06:01:27;;;;;;;4.50;1.60;;;;;;;;;;5006127;28;25050;-62
2023/10/19 06:03:53;;;;;;;9.35;1.90;;;;;;;;;;5015412;28;25062;-61
2023/10/19 06:06:20;;;;;;;4.63;1.70;;;;;;;;;;5017170;28;25075;-61
2023/10/19 06:08:46;;;;;;;7.90;2.03;;;;;;;;;;5015678;28;25181;-60
2023/10/19 06:11:12;;;;;;;5.47;1.92;;;;;;;;;;5005327;28;25085;-61
2023/10/19 06:13:39;;;;;;;11.27;1.80;;;;;;;;;;5012095;28;25146;-62
2023/10/19 06:16:05;;;;;;;7.93;2.03;;;;;;;;;;5001400;28;25088;-61
2023/10/19 06:18:31;;;;;;;6.15;1.30;;;;;;;;;;5012872;28;25068;-61
2023/10/19 06:20:57;;;;;;;9.20;1.60;;;;;;;;;;4995134;28;25143;-61
2023/10/19 06:23:23;;;;;;;10.48;1.67;;;;;;;;;;5013248;28;25062;-61
2023/10/19 06:25:51;;;;;;;6.03;1.58;;;;;;;;;;5010913;28;25066;-61
2023/10/19 06:28:17;;;;;;;7.75;1.80;;;;;;;;;;5007821;28;25064;-62
2023/10/19 06:30:43;;;;;;;4.43;1.27;;;;;;;;;;5011063;28;25120;-61
2023/10/19 06:33:09;;;;;;;8.75;1.85;;;;;;;;;;5009467;28;25101;-62
2023/10/19 06:35:37;;;;;;;9.38;2.35;;;;;;;;;;5006113;28;25086;-61
2023/10/19 06:38:03;;;;;;;6.45;2.17;;;;;;;;;;5013065;28;25101;-61
2023/10/19 06:40:30;;;;;;;6.00;1.88;;;;;;;;;;5007932;28;25109;-60
2023/10/19 06:42:57;;;;;;;7.40;1.80;;;;;;;;;;5015407;28;25054;-61
2023/10/19 06:45:25;;;;;;;9.35;1.65;;;;;;;;;;5009682;28;25199;-61
2023/10/19 06:47:50;;;;;;;10.88;2.20;;;;;;;;;;5013987;28;25056;-60
2023/10/19 06:50:18;;;;;;;7.82;1.95;;;;;;;;;;5013102;28;25047;-60
2023/10/19 06:52:46;;;;;;;11.07;1.65;;;;;;;;;;5009083;28;25100;-63
2023/10/19 06:55:22;;;;;;;6.43;2.08;;;;;;;;;;5013667;28;25068;-62
2023/10/19 06:57:52;;;;;;;11.90;2.15;;;;;;;;;;4992779;28;25113;-62
2023/10/19 07:00:22;;;;;;;10.20;1.88;;;;;;;;;;5011065;28;25157;-60
2023/10/19 07:02:51;;;;;;;8.07;2.55;;;;;;;;;;5010988;28;25058;-61
2023/10/19 07:05:19;;;;;;;8.13;1.75;;;;;;;;;;4993451;28;25049;-61
2023/10/19 07:07:45;;;;;;;4.18;1.60;;;;;;;;;;5015243;28;25066;-62
2023/10/19 07:10:12;;;;;;;9.32;1.77;;;;;;;;;;5014105;28;25134;-62
2023/10/19 07:12:39;;;;;;;6.13;1.52;;;;;;;;;;5013297;28;25089;-63
2023/10/19 07:15:13;;;;;;;9.25;1.70;;;;;;;;;;5011704;28;25086;-62
2023/10/19 07:17:39;;;;;;;12.63;2.10;;;;;;;;;;5011811;28;25141;-61
2023/10/19 07:20:06;;;;;;;15.00;2.75;;;;;;;;;;5014881;28;25095;-61
2023/10/19 07:22:39;;;;;;;4.03;1.67;;;;;;;;;;5015968;28;25065;-62
2023/10/19 07:25:09;;;;;;;8.70;1.85;;;;;;;;;;5011164;28;25215;-60
2023/10/19 07:27:34;;;;;;;10.70;2.10;;;;;;;;;;5013444;28;25028;-61
2023/10/19 07:30:05;;;;;;;11.90;2.35;;;;;;;;;;5013450;28;25118;-62
2023/10/19 07:32:33;;;;;;;8.50;1.88;;;;;;;;;;5009248;28;25051;-61
2023/10/19 07:34:59;;;;;;;8.20;2.00;;;;;;;;;;5009700;28;25061;-62
2023/10/19 07:37:25;;;;;;;10.95;2.55;;;;;;;;;;5012405;28;25067;-62
2023/10/19 07:39:56;;;;;;;13.10;3.20;;;;;;;;;;5010237;28;25064;-61
2023/10/19 07:42:23;;;;;;;10.20;2.45;;;;;;;;;;5007443;28;25064;-62
2023/10/19 07:44:49;;;;;;;12.25;2.63;;;;;;;;;;5009172;28;25136;-61
2023/10/19 07:47:15;;;;;;;6.57;1.88;;;;;;;;;;5007205;28;25129;-62
2023/10/19 07:49:41;;;;;;;10.05;2.65;;;;;;;;;;5013130;28;25050;-62
2023/10/19 07:52:08;;;;;;;7.40;2.38;;;;;;;;;;5014909;28;25046;-62
2023/10/19 07:54:35;;;;;;;11.20;3.10;;;;;;;;;;5011772;28;25145;-62
2023/10/19 07:57:03;;;;;;;9.77;2.72;;;;;;;;;;5012099;28;25067;-61
2023/10/19 07:59:29;;;;;;;15.52;3.55;;;;;;;;;;5009286;28;25086;-63
2023/10/19 08:01:55;;;;;;;8.77;2.35;;;;;;;;;;5010311;28;25090;-63
2023/10/19 08:04:21;;;;;;;6.88;1.90;;;;;;;;;;5013026;28;25143;-63
2023/10/19 08:06:47;;;;;;;11.10;2.55;;;;;;;;;;5012879;28;25100;-62
2023/10/19 08:09:13;;;;;;;10.10;2.83;;;;;;;;;;5013406;28;25121;-62
2023/10/19 08:11:42;;;;;;;8.85;2.60;;;;;;;;;;5007027;28;25101;-62
2023/10/19 08:14:08;;;;;;;9.43;2.72;;;;;;;;;;5003320;28;25078;-62
2023/10/19 08:16:34;;;;;;;10.23;2.67;;;;;;;;;;4990276;28;25072;-61
2023/10/19 08:19:00;;;;;;;14.30;2.67;;;;;;;;;;5009392;28;25052;-63
2023/10/19 08:21:28;;;;;;;7.82;2.75;;;;;;;;;;5012463;28;25065;-61
2023/10/19 08:23:55;;;;;;;7.28;2.30;;;;;;;;;;5012347;28;25063;-62
2023/10/19 08:26:21;;;;;;;15.30;3.00;;;;;;;;;;5009818;28;25141;-62
2023/10/19 08:28:47;;;;;;;10.35;2.65;;;;;;;;;;5018104;28;25059;-66
2023/10/19 08:31:14;;;;;;;7.30;2.75;;;;;;;;;;5009434;28;25071;-62
2023/10/19 08:33:41;;;;;;;9.02;2.38;;;;;;;;;;5012654;28;25072;-62
2023/10/19 08:36:07;;;;;;;9.23;3.00;;;;;;;;;;5009464;28;25060;-61
2023/10/19 08:38:33;;;;;;;9.05;2.90;;;;;;;;;;5010964;28;25087;-62
2023/10/19 08:40:59;;;;;;;10.23;2.75;;;;;;;;;;5014596;28;25050;-61
2023/10/19 08:43:25;;;;;;;9.82;2.75;;;;;;;;;;5004110;28;25167;-61
2023/10/19 08:45:51;;;;;;;8.18;3.10;;;;;;;;;;5012710;28;25089;-62
2023/10/19 08:48:18;;;;;;;11.95;2.80;;;;;;;;;;5014615;28;25098;-62
2023/10/19 08:50:46;;;;;;;18.10;3.65;;;;;;;;;;5009650;28;25073;-61
2023/10/19 08:53:14;;;;;;;9.35;2.55;;;;;;;;;;5011157;28;25051;-61
2023/10/19 08:55:40;;;;;;;10.20;2.78;;;;;;;;;;5008059;28;25089;-61
2023/10/19 08:58:06;;;;;;;15.05;3.05;;;;;;;;;;5012918;28;25057;-62
2023/10/19 09:00:49;;;;;;;9.02;2.92;;;;;;;;;;5006596;28;25075;-61
2023/10/19 09:03:16;;;;;;;10.15;3.17;;;;;;;;;;5009827;28;25077;-61
2023/10/19 09:05:42;;;;;;;12.20;2.85;;;;;;;;;;5010025;28;25122;-60
2023/10/19 09:08:09;;;;;;;11.68;3.15;;;;;;;;;;5013136;28;25055;-62
2023/10/19 09:10:36;;;;;;;12.13;2.47;;;;;;;;;;5008163;28;25060;-62
2023/10/19 09:13:09;;;;;;;20.70;3.95;;;;;;;;;;5011673;28;25000;-61
2023/10/19 09:15:35;;;;;;;9.05;3.20;;;;;;;;;;5009811;28;25094;-61
2023/10/19 09:18:18;;;;;;;16.65;2.85;;;;;;;;;;5014248;28;25103;-61
2023/10/19 09:20:56;;;;;;;8.77;2.75;;;;;;;;;;5005414;28;25105;-62
2023/10/19 09:23:27;;;;;;;13.52;3.28;;;;;;;;;;5006004;28;25131;-61
2023/10/19 09:25:54;;;;;;;10.40;2.67;;;;;;;;;;5007628;28;25060;-61
2023/10/19 09:28:20;;;;;;;11.95;2.92;;;;;;;;;;5007562;28;25135;-61
2023/10/19 09:30:46;;;;;;;15.20;2.90;;;;;;;;;;5006558;28;25091;-61
2023/10/19 09:33:17;;;;;;;6.95;1.88;;;;;;;;;;5011789;28;25084;-63
2023/10/19 09:35:44;;;;;;;9.85;2.42;;;;;;;;;;5005106;28;25106;-61
2023/10/19 09:38:11;;;;;;;12.48;2.40;;;;;;;;;;5008029;28;25125;-61
2023/10/19 09:40:38;;;;;;;17.38;2.85;;;;;;;;;;5006268;28;25094;-61
2023/10/19 09:43:08;;;;;;;10.07;2.40;;;;;;;;;;5015412;28;25054;-61
2023/10/19 09:45:37;;;;;;;11.13;2.42;;;;;;;;;;5011420;28;25073;-61
2023/10/19 09:48:06;;;;;;;12.20;1.90;;;;;;;;;;5006151;28;25058;-62
2023/10/19 09:50:32;;;;;;;8.73;2.35;;;;;;;;;;4989927;28;25068;-63
2023/10/19 09:52:58;;;;;;;10.73;2.08;;;;;;;;;;5015102;28;25074;-63
2023/10/19 09:55:30;;;;;;;12.13;1.92;;;;;;;;;;5006266;28;25108;-62
2023/10/19 09:58:15;;;;;;;9.60;2.05;;;;;;;;;;5009266;28;25077;-61
2023/10/19 10:00:50;;;;;;;16.60;2.65;;;;;;;;;;5010384;28;25061;-61
2023/10/19 10:03:36;;;;;;;12.02;2.55;;;;;;;;;;5009273;28;25220;-62
2023/10/19 10:06:02;;;;;;;7.35;2.13;;;;;;;;;;5011665;28;25114;-62
2023/10/19 10:08:30;;;;;;;10.30;2.10;;;;;;;;;;5008521;28;25074;-62
2023/10/19 10:10:56;;;;;;;12.43;2.85;;;;;;;;;;5007719;28;25095;-62
2023/10/19 10:13:42;;;;;;;8.50;1.90;;;;;;;;;;5009638;28;25114;-61
2023/10/19 10:16:08;;;;;;;12.63;2.42;;;;;;;;;;5006179;28;25080;-61
2023/10/19 10:18:36;;;;;;;8.98;2.80;;;;;;;;;;5006081;28;25162;-59
2023/10/19 10:21:12;;;;;;;8.35;1.92;;;;;;;;;;5009222;28;25077;-61
2023/10/19 10:23:45;;;;;;;9.82;2.45;;;;;;;;;;5006088;28;25075;-62
2023/10/19 10:26:13;;;;;;;15.95;3.17;;;;;;;;;;5006198;28;25060;-62
2023/10/19 10:28:39;;;;;;;15.32;2.45;;;;;;;;;;5008215;28;25115;-61
2023/10/19 10:31:08;;;;;;;11.27;2.13;;;;;;;;;;5005581;28;25086;-62
2023/10/19 10:33:38;;;;;;;14.88;2.65;;;;;;;;;;5006301;28;25066;-62
2023/10/19 10:36:06;;;;;;;15.07;2.78;;;;;;;;;;5001499;28;25142;-61
2023/10/19 10:38:35;;;;;;;8.23;2.38;;;;;;;;;;5005405;28;25061;-62
2023/10/19 10:41:01;;;;;;;12.98;1.90;;;;;;;;;;5008530;28;25173;-62
2023/10/19 10:43:27;;;;;;;12.23;2.95;;;;;;;;;;5012881;28;25143;-63
2023/10/19 10:46:03;;;;;;;18.83;2.90;;;;;;;;;;5009439;28;25160;-60
2023/10/19 10:48:29;;;;;;;14.40;2.75;;;;;;;;;;5008817;28;25071;-62
2023/10/19 10:50:55;;;;;;;13.10;3.42;;;;;;;;;;5011975;28;25136;-61
2023/10/19 10:53:26;;;;;;;8.55;2.45;;;;;;;;;;5009276;28;25114;-60
2023/10/19 10:55:52;;;;;;;13.82;2.45;;;;;;;;;;5004579;28;25053;-61
2023/10/19 10:58:18;;;;;;;10.20;2.20;;;;;;;;;;5010250;28;25152;-62
2023/10/19 11:00:46;;;;;;;10.18;2.63;;;;;;;;;;5004595;28;25077;-62
2023/10/19 11:03:13;;;;;;;10.55;2.10;;;;;;;;;;5005801;28;25070;-61
2023/10/19 11:05:40;;;;;;;16.45;4.20;;;;;;;;;;5007335;28;25074;-61
2023/10/19 11:08:09;;;;;;;9.40;2.83;;;;;;;;;;5006280;28;25054;-61
2023/10/19 11:10:39;;;;;;;8.65;2.72;;;;;;;;;;5010574;28;25050;-61
2023/10/19 11:13:06;;;;;;;13.02;3.35;;;;;;;;;;5021543;28;25062;-61
2023/10/19 11:15:32;;;;;;;13.07;2.42;;;;;;;;;;5017809;28;25048;-60
2023/10/19 11:17:58;;;;;;;7.65;2.50;;;;;;;;;;5012278;28;25053;-61
2023/10/19 11:20:26;;;;;;;11.20;2.28;;;;;;;;;;5013719;28;25074;-60
2023/10/19 11:22:55;;;;;;;4.78;1.80;;;;;;;;;;5015630;28;25047;-61
2023/10/19 11:25:22;;;;;;;17.80;3.67;;;;;;;;;;5012017;28;25097;-61
2023/10/19 11:27:48;;;;;;;8.48;2.00;;;;;;;;;;5013989;28;25084;-60
2023/10/19 11:30:14;;;;;;;13.27;2.95;;;;;;;;;;5016926;28;25089;-61
2023/10/19 11:32:40;;;;;;;14.35;2.88;;;;;;;;;;5014228;28;25144;-61
2023/10/19 11:35:09;;;;;;;10.27;2.17;;;;;;;;;;5013902;28;25150;-61
2023/10/19 11:37:52;;;;;;;9.95;2.45;;;;;;;;;;5016474;28;25152;-62
2023/10/19 11:40:19;;;;;;;10.98;2.78;;;;;;;;;;5019416;28;25072;-61
2023/10/19 11:42:45;;;;;;;15.05;2.50;;;;;;;;;;5010344;28;25061;-61
2023/10/19 11:45:11;;;;;;;10.55;2.10;;;;;;;;;;5005375;28;25059;-61
2023/10/19 11:47:37;;;;;;;12.95;2.15;;;;;;;;;;5018706;28;25073;-61
2023/10/19 11:50:04;;;;;;;11.77;2.75;;;;;;;;;;4999814;28;25115;-62
2023/10/19 11:52:30;;;;;;;11.93;2.55;;;;;;;;;;5021411;28;25141;-61
2023/10/19 11:54:56;;;;;;;10.13;1.98;;;;;;;;;;5022492;28;25146;-60
2023/10/19 11:57:27;;;;;;;12.05;2.13;;;;;;;;;;4997640;28;25171;-61
2023/10/19 11:59:53;;;;;;;10.63;2.30;;;;;;;;;;5009519;28;25066;-62
2023/10/19 12:02:20;;;;;;;8.60;2.80;;;;;;;;;;5018092;28;25093;-62
2023/10/19 12:04:46;;;;;;;8.05;2.08;;;;;;;;;;5025019;28;25060;-61
2023/10/19 12:07:12;;;;;;;10.38;2.17;;;;;;;;;;5012168;28;25080;-63
2023/10/19 12:09:41;;;;;;;13.30;2.60;;;;;;;;;;5020728;28;25063;-61
2023/10/19 12:12:08;;;;;;;12.50;2.65;;;;;;;;;;5014020;28;25135;-62
2023/10/19 12:14:34;;;;;;;13.38;2.35;;;;;;;;;;5024673;28;25073;-61
2023/10/19 12:17:02;;;;;;;11.13;2.03;;;;;;;;;;5014826;28;25061;-61
2023/10/19 12:19:29;;;;;;;11.18;2.47;;;;;;;;;;5023273;28;25055;-61
2023/10/19 12:21:55;;;;;;;8.45;2.17;;;;;;;;;;5021524;28;25068;-61
2023/10/19 12:24:21;;;;;;;15.40;2.40;;;;;;;;;;5016011;28;25122;-60
2023/10/19 12:26:47;;;;;;;8.65;2.65;;;;;;;;;;5014682;28;25075;-61
2023/10/19 12:29:14;;;;;;;12.98;2.75;;;;;;;;;;5022258;28;25080;-61
2023/10/19 12:31:40;;;;;;;11.00;2.53;;;;;;;;;;5017538;28;25066;-62
2023/10/19 12:34:11;;;;;;;10.88;2.47;;;;;;;;;;5010604;28;25061;-61
2023/10/19 12:36:37;;;;;;;9.38;1.92;;;;;;;;;;5024176;28;25072;-62
2023/10/19 12:39:06;;;;;;;13.45;2.60;;;;;;;;;;5005195;28;25083;-60
2023/10/19 12:41:33;;;;;;;17.88;2.53;;;;;;;;;;5002911;28;25060;-62
2023/10/19 12:44:07;;;;;;;13.55;2.30;;;;;;;;;;5022191;28;25079;-61
2023/10/19 12:46:36;;;;;;;9.38;1.52;;;;;;;;;;5018604;28;25151;-61
2023/10/19 12:49:02;;;;;;;11.45;2.40;;;;;;;;;;5020271;28;25070;-62
2023/10/19 12:51:29;;;;;;;10.98;2.90;;;;;;;;;;5013885;28;25076;-62
2023/10/19 12:53:56;;;;;;;14.60;2.60;;;;;;;;;;5018343;28;25061;-63
2023/10/19 12:56:28;;;;;;;13.55;2.75;;;;;;;;;;5015226;28;25174;-61
2023/10/19 12:58:54;;;;;;;10.15;3.08;;;;;;;;;;5014099;28;25049;-63
2023/10/19 13:01:21;;;;;;;11.80;2.47;;;;;;;;;;5015070;28;25070;-61
2023/10/19 13:03:49;;;;;;;13.40;2.35;;;;;;;;;;5018198;28;25066;-61
2023/10/19 13:06:15;;;;;;;12.55;3.10;;;;;;;;;;5012227;28;25125;-62
2023/10/19 13:08:41;;;;;;;16.55;2.75;;;;;;;;;;5016272;28;25066;-62
2023/10/19 13:11:08;;;;;;;7.22;2.28;;;;;;;;;;5020297;28;25040;-61
2023/10/19 13:13:36;;;;;;;15.50;2.72;;;;;;;;;;5011388;28;25067;-61
2023/10/19 13:16:05;;;;;;;9.57;2.80;;;;;;;;;;5013504;28;25107;-60
2023/10/19 13:18:33;;;;;;;13.25;2.63;;;;;;;;;;5013340;28;25115;-60
2023/10/19 13:21:01;;;;;;;13.05;2.70;;;;;;;;;;5016841;28;25042;-61
2023/10/19 13:23:28;;;;;;;13.15;2.72;;;;;;;;;;5013477;28;25155;-61
2023/10/19 13:25:57;;;;;;;13.55;2.78;;;;;;;;;;5015633;28;25135;-61
2023/10/19 13:28:23;;;;;;;9.55;2.72;;;;;;;;;;5008339;28;25066;-61
2023/10/19 13:30:53;;;;;;;13.07;3.72;;;;;;;;;;5018582;28;25129;-61
2023/10/19 13:33:23;;;;;;;14.07;3.30;;;;;;;;;;5015322;28;25092;-60
2023/10/19 13:35:49;;;;;;;12.90;3.08;;;;;;;;;;5010577;28;25049;-61
2023/10/19 13:38:16;;;;;;;12.65;3.15;;;;;;;;;;5012402;28;25137;-62
2023/10/19 13:40:42;;;;;;;11.68;3.13;;;;;;;;;;5020597;28;25050;-61
2023/10/19 13:43:13;;;;;;;11.23;3.47;;;;;;;;;;5010364;28;25133;-60
2023/10/19 13:45:40;;;;;;;9.95;2.92;;;;;;;;;;5008535;28;25089;-62
2023/10/19 13:48:07;;;;;;;7.18;2.30;;;;;;;;;;5018968;28;25065;-62
2023/10/19 13:50:33;;;;;;;14.07;2.72;;;;;;;;;;5010314;28;25075;-61
2023/10/19 13:53:04;;;;;;;15.93;3.10;;;;;;;;;;5015924;28;25136;-61
2023/10/19 13:55:30;;;;;;;19.65;3.83;;;;;;;;;;5014192;28;25091;-63
2023/10/19 13:57:57;;;;;;;11.80;3.72;;;;;;;;;;5020655;28;25083;-61
2023/10/19 14:00:24;;;;;;;8.82;2.75;;;;;;;;;;5011571;28;25152;-61
2023/10/19 14:02:51;;;;;;;15.02;3.05;;;;;;;;;;5019207;28;25069;-61
2023/10/19 14:05:17;;;;;;;7.72;2.45;;;;;;;;;;5016362;28;25059;-62
2023/10/19 14:07:43;;;;;;;13.07;4.53;;;;;;;;;;5017021;28;25067;-61
2023/10/19 14:10:13;;;;;;;12.10;3.15;;;;;;;;;;5011491;28;25062;-60
2023/10/19 14:12:42;;;;;;;16.42;3.47;;;;;;;;;;5015002;28;25103;-61
2023/10/19 14:15:18;;;;;;;13.80;3.97;;;;;;;;;;5013594;28;25066;-61
2023/10/19 14:17:45;;;;;;;11.98;3.20;;;;;;;;;;5014093;28;25066;-61
2023/10/19 14:20:12;;;;;;;14.30;3.85;;;;;;;;;;5011255;28;25139;-62
2023/10/19 14:22:51;;;;;;;9.98;2.22;;;;;;;;;;5015297;28;25132;-60
2023/10/19 14:25:19;;;;;;;12.25;3.15;;;;;;;;;;4990403;28;25106;-60
2023/10/19 14:27:47;;;;;;;10.38;3.13;;;;;;;;;;5014777;28;25077;-60
2023/10/19 14:30:14;;;;;;;11.77;2.50;;;;;;;;;;5015512;28;25063;-61
2023/10/19 14:32:41;;;;;;;13.23;3.10;;;;;;;;;;5014847;28;25073;-61
2023/10/19 14:35:10;;;;;;;16.13;2.70;;;;;;;;;;5008190;28;25125;-62
2023/10/19 14:37:38;;;;;;;16.30;3.45;;;;;;;;;;5016555;28;25083;-61
2023/10/19 14:40:04;;;;;;;14.77;3.17;;;;;;;;;;5012481;28;25070;-62
2023/10/19 14:42:33;;;;;;;13.95;2.60;;;;;;;;;;5014181;28;25142;-62
2023/10/19 14:44:59;;;;;;;7.68;2.47;;;;;;;;;;5006341;28;25106;-61
2023/10/19 14:47:26;;;;;;;12.85;3.10;;;;;;;;;;5010591;28;25056;-61